• Join FlightAware (Why Join?)
  • Login
  • US Flag 
08:58PM EDT


 

Airport Tracker/Info


-or-


 

Live Flight TrackerFlight Track Log ✈ CRK129 ✈ 24-Oct-2013 ✈ ZSHC / HGH - VHHH / HKG

Flight Track Log - Related Links

Times and Time Zones

All times are in EDT time to prevent confusion due to time zone crossing. See the CRK129 flight status page for this flight to view local times or setup timezone preferences in your user account.

Time Position Orientation Groundspeed Altitude Reporting Facility
EDT Latitude Longitude Course Direction KTS MPH feet Rate Location/Type
09:34PM 28.3760 119.5210 182° South 435 501 34,100  Level FlightAware
09:35PM 28.2470 119.5130 183° South 435 501 34,100  Level FlightAware
09:36PM 28.1570 119.5100 182° South 435 501 34,100  Level FlightAware
09:36PM 28.0950 119.5070 182° South 435 501 34,100  Level FlightAware
09:37PM 27.9920 119.5030 182° South 435 501 34,100  Level FlightAware
09:38PM 27.9310 119.5010 182° South 435 501 34,100  Level FlightAware
09:39PM 27.8280 119.4970 182° South 435 501 34,100  Level FlightAware
09:40PM 27.7450 119.4940 182° South 435 501 34,100  Level FlightAware
09:41PM 27.6370 119.4890 182° South 435 501 34,100  Level FlightAware
09:41PM 27.5550 119.4860 182° South 435 501 34,100  Level FlightAware
09:42PM 27.5140 119.4840 182° South 435 501 34,100  Level FlightAware
09:44PM 27.1740 119.5550 169° South 447 514 34,100  Level FlightAware
09:44PM 27.0890 119.5550 180° South 447 514 34,100  Level FlightAware
09:45PM 27.0050 119.5550 180° South 447 514 34,100  Level FlightAware
09:46PM 26.9210 119.5550 180° South 447 514 34,100  Level FlightAware
09:47PM 26.8150 119.5550 180° South 447 514 34,100  Level FlightAware
09:48PM 26.7500 119.5550 180° South 447 514 34,100  Level FlightAware
09:48PM 26.6620 119.5550 180° South 447 514 34,100  Level FlightAware
09:49PM 26.5570 119.5550 180° South 447 514 34,100  Level FlightAware
09:50PM 26.4940 119.5550 180° South 447 514 34,100  Level FlightAware
09:51PM 26.4300 119.5550 180° South 447 514 34,100  Level FlightAware
09:51PM 26.3460 119.5550 180° South 447 514 34,100  Level FlightAware
09:52PM 26.3020 119.5550 180° South 447 514 34,100  Level FlightAware
09:52PM 26.2390 119.5550 180° South 447 514 34,100  Level FlightAware
09:53PM 26.1720 119.5550 180° South 447 514 34,100  Level FlightAware
09:55PM 25.7910 119.3770 203° Southwest 442 509 34,100  Level FlightAware
09:55PM 25.7100 119.3180 213° Southwest 439 505 34,100  Level FlightAware
09:56PM 25.6490 119.2510 225° Southwest 438 504 34,100  Level FlightAware
09:57PM 25.6130 119.2080 227° Southwest 439 505 34,100  Level FlightAware
09:58PM 25.5360 119.1170 227° Southwest 440 506 34,100  Level FlightAware
09:58PM 25.4860 119.0590 226° Southwest 440 506 34,100  Level FlightAware
09:59PM 25.4070 118.9670 226° Southwest 440 506 34,100  Level FlightAware
10:00PM 25.3330 118.8830 226° Southwest 440 506 34,100  Level FlightAware
10:01PM 25.2780 118.8200 226° Southwest 440 506 34,100 -60 Level FlightAware
10:02PM 25.1940 118.7260 225° Southwest 441 507 34,000 -120 Descending FlightAware
10:02PM 25.1640 118.6940 224° Southwest 441 507 34,000  Level FlightAware
10:03PM 25.0910 118.6130 225° Southwest 441 507 34,000  Level FlightAware
10:03PM 25.0610 118.5800 225° Southwest 441 507 34,000  Level FlightAware
10:04PM 25.0170 118.5310 225° Southwest 441 507 34,000  Level FlightAware
10:05PM 24.9420 118.4490 225° Southwest 441 507 34,000  Level FlightAware
10:06PM 24.8830 118.3840 225° Southwest 441 507 34,000  Level FlightAware
10:06PM 24.8390 118.3350 225° Southwest 441 507 34,000  Level FlightAware
10:07PM 24.7800 118.2700 225° Southwest 441 507 34,000  Level FlightAware
10:08PM 24.7070 118.1890 225° Southwest 441 507 34,000  Level FlightAware
10:09PM 24.6480 118.1250 225° Southwest 441 507 34,000  Level FlightAware
10:10PM 24.5740 118.0440 225° Southwest 441 507 34,000  Level FlightAware
10:10PM 24.5600 118.0280 226° Southwest 441 507 34,000 -660 Level FlightAware
10:13PM 24.3944 117.7134 240° Southwest  Level Estimated
10:14PM 24.3205 117.5738 240° Southwest  Level Estimated
10:15PM 24.2466 117.4344 240° Southwest  Level Estimated
10:16PM 24.1725 117.2952 240° Southwest  Level Estimated
10:17PM 24.0983 117.1561 240° Southwest  Level Estimated
10:18PM 24.0239 117.0172 240° Southwest  Level Estimated
10:19PM 23.9495 116.8784 240° Southwest  Level Estimated
10:20PM 23.8749 116.7398 240° Southwest  Level Estimated
10:21PM 23.8002 116.6013 239° Southwest  Level Estimated
10:22PM 23.7253 116.4631 239° Southwest  Level Estimated
10:23PM 23.6504 116.3250 239° Southwest  Level Estimated
10:24PM 23.5753 116.1870 239° Southwest  Level Estimated
10:25PM 23.5001 116.0492 239° Southwest  Level Estimated
10:26PM 23.4248 115.9115 239° Southwest  Level Estimated
10:27PM 23.3493 115.7740 239° Southwest  Level Estimated
10:28PM 23.2738 115.6367 239° Southwest  Level Estimated
10:29PM 23.1981 115.4995 239° Southwest  Level Estimated
10:30PM 23.1223 115.3625 239° Southwest  Level Estimated
10:31PM 23.0464 115.2256 239° Southwest  Level Estimated
10:32PM 22.9704 115.0889 239° Southwest  Level Estimated
10:33PM 22.8942 114.9523 239° Southwest  Level Estimated
10:34PM 22.8179 114.8159 239° Southwest  Level Estimated
10:35PM 22.7416 114.6797 239° Southwest  Level Estimated
10:36PM 22.6651 114.5436 239° Southwest  Level Estimated
10:37PM 22.5884 114.4076 239° Southwest  Level Estimated
10:38PM 22.5117 114.2718 239° Southwest  Level Estimated
10:39PM 22.4349 114.1362 239° Southwest  Level Estimated
10:40PM 22.3579 114.0007 238° Southwest  Level Estimated
10:41PM 22.3089 113.9146 238° Southwest  Level Estimated
10:42PM 22.3089 113.9146 110° East  Level Estimated
10:42PM 22.2660 114.8100 110° East 307 353 13,100  Level FlightAware
10:43PM 22.3089 113.9146 110° East  Level Estimated
10:43PM 22.2640 114.7500 268° West 303 349 13,000  Level FlightAware
10:44PM 22.2620 114.6910 268° West 303 349 13,000 -240 Level FlightAware
10:45PM 22.2590 114.5940 268° West 305 351 12,600 -300 Descending FlightAware
10:46PM 22.2560 114.5430 266° West 305 351 12,600 -420 Level FlightAware
10:46PM 22.2530 114.4400 268° West 293 337 12,000 -360 Descending FlightAware
10:48PM 22.2500 114.3620 268° West 293 337 12,000  Level FlightAware
10:48PM 22.2490 114.3290 268° West 279 321 12,000  Level FlightAware
10:49PM 22.2380 114.2670 259° West 279 321 12,000 -480 Level FlightAware
10:49PM 22.2190 114.2160 248° West 275 316 11,400 -780 Descending FlightAware
10:50PM 22.2040 114.1810 245° Southwest 275 316 11,000 -1,140 Descending FlightAware
10:51PM 22.1420 114.1140 225° Southwest 280 322 9,700 -1,200 Descending FlightAware
10:51PM 22.1190 114.0890 225° Southwest 273 314 9,200 -1,740 Descending FlightAware
10:52PM 22.0840 114.0500 226° Southwest 268 308 8,000 -2,040 Descending FlightAware
10:52PM 22.0660 114.0300 226° Southwest 268 308 7,200 -1,740 Descending FlightAware
10:53PM 22.0440 114.0060 225° Southwest 264 304 6,600 -1,440 Descending FlightAware
10:53PM 22.0260 113.9760 237° Southwest 263 303 5,900 -900 Descending FlightAware
10:54PM 22.0150 113.9330 255° West 261 300 5,600 -1,200 Descending FlightAware
10:54PM 22.0120 113.9120 261° West 245 282 4,900 -1,260 Descending FlightAware
10:55PM 22.0150 113.8670 274° West 233 268 4,500 -600 Descending FlightAware
10:55PM 22.0180 113.8370 276° West 221 254 4,300 -480 Descending FlightAware
10:56PM 22.0310 113.8130 300° West 199 229 4,100 -240 Descending FlightAware
10:56PM 22.0420 113.7960 305° West 199 229 4,100 -480 Level FlightAware
10:59PM 22.3089 113.9146 22° Northeast  Level Estimated
10:59PM 22.1860 113.7340 22° Northeast 2,500  Level FlightAware
11:03PM 22.2970 113.8540 45° Northeast 128 147 800 -480 Descending FlightAware
11:04PM 22.3020 113.8710 72° East 129 148 500 -720 Descending FlightAware
11:04PM 22.3040 113.8770 70° East 127 146 400 -600 Descending FlightAware
11:04PM 22.3120 113.9010 70° East 135 155 -660 Descending FlightAware
11:10PM 22.3150 113.9250 270° West 134 154  Level FlightAware